Time;durP1;ratioP1;P1;durP2;ratioP2;P2;SDS_P1;SDS_P2;PMS_P1;PMS_P2;Temp;Humidity;BMP_temperature;BMP_pressure;BME280_temperature;BME280_humidity;BME280_pressure;Samples;Min_cycle;Max_cycle;Signal;HPM_P1;HPM_P2
2022/07/28 00:02:03;;;;;;;3.00;1.00;;;;;;;;;;5001986;28;20122;-74
2022/07/28 00:04:29;;;;;;;2.88;0.90;;;;;;;;;;5001229;28;20033;-74
2022/07/28 00:06:55;;;;;;;2.50;1.10;;;;;;;;;;4994743;28;20029;-73
2022/07/28 00:09:20;;;;;;;2.85;1.20;;;;;;;;;;5004395;28;20631;-74
2022/07/28 00:11:45;;;;;;;1.73;0.88;;;;;;;;;;5001390;28;20036;-72
2022/07/28 00:14:11;;;;;;;1.95;0.98;;;;;;;;;;5005141;28;20149;-74
2022/07/28 00:16:36;;;;;;;2.08;1.13;;;;;;;;;;5003573;28;20034;-73
2022/07/28 00:19:02;;;;;;;2.45;1.08;;;;;;;;;;4998951;28;20109;-74
2022/07/28 00:21:28;;;;;;;1.52;0.80;;;;;;;;;;5006794;28;20121;-74
2022/07/28 00:23:53;;;;;;;1.88;0.80;;;;;;;;;;5000358;28;20152;-74
2022/07/28 00:26:18;;;;;;;1.63;0.80;;;;;;;;;;5002319;28;20069;-73
2022/07/28 00:28:44;;;;;;;2.55;0.90;;;;;;;;;;4996180;28;20022;-73
2022/07/28 00:31:09;;;;;;;1.52;0.77;;;;;;;;;;4997637;28;20521;-74
2022/07/28 00:33:34;;;;;;;2.00;0.88;;;;;;;;;;4998388;28;20521;-74
2022/07/28 00:36:00;;;;;;;1.75;0.80;;;;;;;;;;5003423;28;20398;-74
2022/07/28 00:38:25;;;;;;;2.70;1.40;;;;;;;;;;5001795;28;20053;-74
2022/07/28 00:43:35;;;;;;;2.42;0.90;;;;;;;;;;5002741;28;20793;-72
2022/07/28 00:46:00;;;;;;;1.67;0.77;;;;;;;;;;4999955;28;20026;-74
2022/07/28 00:48:26;;;;;;;1.42;0.80;;;;;;;;;;5006253;28;20065;-74
2022/07/28 00:50:51;;;;;;;2.20;0.80;;;;;;;;;;5004686;28;20022;-74
2022/07/28 00:53:17;;;;;;;2.00;0.68;;;;;;;;;;5006304;28;20022;-73
2022/07/28 00:55:42;;;;;;;1.55;0.80;;;;;;;;;;5004814;28;20533;-74
2022/07/28 00:58:08;;;;;;;1.65;0.63;;;;;;;;;;5002672;28;20747;-74
2022/07/28 01:00:33;;;;;;;3.05;0.90;;;;;;;;;;5002339;28;20490;-74
2022/07/28 01:02:59;;;;;;;1.88;0.80;;;;;;;;;;5002247;28;20136;-74
2022/07/28 01:05:36;;;;;;;2.63;0.98;;;;;;;;;;5002850;28;20135;-73
2022/07/28 01:08:11;;;;;;;2.05;0.73;;;;;;;;;;5001456;28;20112;-74
2022/07/28 01:10:45;;;;;;;2.13;0.88;;;;;;;;;;5009247;28;20025;-74
2022/07/28 01:13:49;;;;;;;1.40;0.82;;;;;;;;;;5005991;28;20037;-73
2022/07/28 01:16:15;;;;;;;1.90;1.00;;;;;;;;;;5006261;28;20166;-74
2022/07/28 01:18:46;;;;;;;1.42;0.90;;;;;;;;;;5008468;28;20128;-73
2022/07/28 01:21:14;;;;;;;4.18;1.23;;;;;;;;;;5005367;28;20038;-74
2022/07/28 01:24:00;;;;;;;2.70;0.80;;;;;;;;;;5008802;28;20485;-74
2022/07/28 01:26:45;;;;;;;2.25;0.77;;;;;;;;;;4996998;28;20065;-73
2022/07/28 01:29:56;;;;;;;1.83;0.88;;;;;;;;;;5005283;28;20441;-74
2022/07/28 01:32:25;;;;;;;2.03;0.90;;;;;;;;;;4970692;28;20509;-74
2022/07/28 01:34:59;;;;;;;2.13;0.80;;;;;;;;;;5003626;28;20069;-74
2022/07/28 01:37:27;;;;;;;1.20;0.80;;;;;;;;;;5007334;28;20461;-71
2022/07/28 01:39:56;;;;;;;1.90;0.80;;;;;;;;;;5000910;28;20029;-74
2022/07/28 01:42:26;;;;;;;1.30;0.90;;;;;;;;;;5009174;28;20045;-74
2022/07/28 01:44:54;;;;;;;3.75;1.00;;;;;;;;;;5007865;28;20121;-72
2022/07/28 01:47:21;;;;;;;1.70;0.80;;;;;;;;;;5004765;28;20029;-74
2022/07/28 01:49:48;;;;;;;1.27;0.70;;;;;;;;;;5007142;28;20048;-73
2022/07/28 01:52:16;;;;;;;1.60;0.82;;;;;;;;;;5005232;28;20113;-74
2022/07/28 01:54:44;;;;;;;3.45;1.27;;;;;;;;;;5006772;28;20041;-72
2022/07/28 01:57:13;;;;;;;2.05;0.90;;;;;;;;;;5007344;28;20605;-73
2022/07/28 01:59:40;;;;;;;1.73;0.80;;;;;;;;;;5006674;28;20022;-74
2022/07/28 02:02:07;;;;;;;2.22;0.90;;;;;;;;;;5002690;28;20057;-74
2022/07/28 02:04:34;;;;;;;1.98;0.75;;;;;;;;;;5005764;28;20033;-74
2022/07/28 02:07:02;;;;;;;2.17;0.85;;;;;;;;;;5003817;28;20058;-74
2022/07/28 02:09:29;;;;;;;1.95;0.90;;;;;;;;;;5006782;28;20058;-74
2022/07/28 02:11:54;;;;;;;2.67;0.90;;;;;;;;;;5007076;28;20026;-73
2022/07/28 02:14:22;;;;;;;1.45;0.60;;;;;;;;;;5006181;28;20076;-74
2022/07/28 02:16:52;;;;;;;3.05;0.90;;;;;;;;;;5002474;28;20041;-74
2022/07/28 02:19:20;;;;;;;2.47;1.00;;;;;;;;;;5004473;28;20034;-74
2022/07/28 02:21:47;;;;;;;2.63;1.02;;;;;;;;;;5004738;28;20080;-74
2022/07/28 02:24:15;;;;;;;2.90;1.30;;;;;;;;;;5005836;28;20043;-72
2022/07/28 02:26:47;;;;;;;1.70;1.00;;;;;;;;;;5004616;28;20388;-72
2022/07/28 02:29:14;;;;;;;1.83;0.60;;;;;;;;;;5004503;28;20034;-74
2022/07/28 02:31:50;;;;;;;3.60;0.90;;;;;;;;;;5003182;28;20045;-74
2022/07/28 02:34:17;;;;;;;2.10;0.80;;;;;;;;;;5002608;28;20513;-74
2022/07/28 02:36:52;;;;;;;1.73;0.80;;;;;;;;;;5003707;28;20046;-73
2022/07/28 02:39:23;;;;;;;2.00;0.90;;;;;;;;;;5004939;28;20401;-73
2022/07/28 02:41:56;;;;;;;2.55;1.00;;;;;;;;;;5001434;28;20034;-74
2022/07/28 02:44:27;;;;;;;2.72;0.90;;;;;;;;;;5004969;28;20047;-74
2022/07/28 02:46:55;;;;;;;1.98;0.80;;;;;;;;;;5000132;28;20018;-73
2022/07/28 02:49:28;;;;;;;1.73;0.90;;;;;;;;;;5002486;28;20029;-72
2022/07/28 02:51:54;;;;;;;2.92;0.90;;;;;;;;;;5002749;28;20478;-74
2022/07/28 02:54:22;;;;;;;2.20;1.05;;;;;;;;;;5002452;28;20044;-74
2022/07/28 02:56:49;;;;;;;3.72;1.23;;;;;;;;;;4997096;28;20022;-74
2022/07/28 02:59:16;;;;;;;2.90;1.15;;;;;;;;;;5000560;28;20092;-74
2022/07/28 03:01:42;;;;;;;2.30;0.98;;;;;;;;;;4998272;28;20057;-74
2022/07/28 03:04:09;;;;;;;1.48;0.90;;;;;;;;;;5003605;28;20488;-72
2022/07/28 03:06:35;;;;;;;1.83;1.05;;;;;;;;;;5003504;28;20219;-74
2022/07/28 03:09:00;;;;;;;2.63;1.00;;;;;;;;;;5000174;28;20460;-72
2022/07/28 03:11:26;;;;;;;2.58;1.27;;;;;;;;;;4998289;28;20037;-71
2022/07/28 03:13:52;;;;;;;5.32;1.05;;;;;;;;;;5005652;28;20036;-74
2022/07/28 03:16:17;;;;;;;2.67;1.00;;;;;;;;;;5006894;28;20042;-73
2022/07/28 03:18:43;;;;;;;2.65;1.00;;;;;;;;;;5006790;28;20041;-72
2022/07/28 03:21:08;;;;;;;1.60;0.90;;;;;;;;;;5005138;28;20034;-74
2022/07/28 03:23:38;;;;;;;2.80;0.88;;;;;;;;;;5001111;28;20421;-74
2022/07/28 03:26:22;;;;;;;2.17;0.90;;;;;;;;;;5001748;28;21144;-74
2022/07/28 03:28:51;;;;;;;3.70;1.02;;;;;;;;;;5005139;28;20382;-73
2022/07/28 03:31:19;;;;;;;2.00;0.85;;;;;;;;;;4999858;28;20077;-74
2022/07/28 03:33:46;;;;;;;1.92;1.02;;;;;;;;;;4998989;28;20037;-73
2022/07/28 03:36:15;;;;;;;2.20;0.82;;;;;;;;;;5000625;28;20050;-74
2022/07/28 03:38:57;;;;;;;2.88;1.00;;;;;;;;;;4997692;28;20617;-72
2022/07/28 03:41:24;;;;;;;2.87;1.03;;;;;;;;;;5003731;28;20050;-72
2022/07/28 03:43:51;;;;;;;1.20;0.80;;;;;;;;;;5001692;28;20468;-74
2022/07/28 03:46:17;;;;;;;2.90;0.85;;;;;;;;;;5005071;28;20022;-74
2022/07/28 03:48:42;;;;;;;2.03;0.90;;;;;;;;;;4997200;28;20478;-72
2022/07/28 03:51:08;;;;;;;1.83;0.90;;;;;;;;;;5003772;28;20382;-74
2022/07/28 03:53:33;;;;;;;2.47;1.00;;;;;;;;;;5005233;28;20517;-73
2022/07/28 03:55:59;;;;;;;3.67;1.02;;;;;;;;;;5003601;28;20033;-72
2022/07/28 03:58:26;;;;;;;2.13;0.90;;;;;;;;;;5011131;28;20022;-72
2022/07/28 04:00:51;;;;;;;2.40;0.90;;;;;;;;;;5003450;28;20026;-74
2022/07/28 04:03:18;;;;;;;1.95;0.88;;;;;;;;;;5007553;28;20045;-74
2022/07/28 04:05:43;;;;;;;2.28;1.08;;;;;;;;;;5001868;28;20018;-74
2022/07/28 04:08:08;;;;;;;4.07;1.30;;;;;;;;;;4998773;28;20758;-74
2022/07/28 04:10:34;;;;;;;2.35;0.80;;;;;;;;;;5005384;28;20643;-72
2022/07/28 04:13:00;;;;;;;5.28;1.00;;;;;;;;;;5009685;28;20391;-74
2022/07/28 04:15:26;;;;;;;3.95;0.93;;;;;;;;;;5007442;28;20030;-74
2022/07/28 04:17:53;;;;;;;4.10;1.25;;;;;;;;;;5003874;28;20033;-74
2022/07/28 04:20:20;;;;;;;2.60;1.00;;;;;;;;;;5007999;28;20021;-73
2022/07/28 04:22:47;;;;;;;2.78;1.00;;;;;;;;;;5006815;28;20057;-74
2022/07/28 04:25:15;;;;;;;1.48;0.95;;;;;;;;;;5005645;28;20026;-73
2022/07/28 04:27:41;;;;;;;2.70;1.20;;;;;;;;;;5009281;28;20093;-73
2022/07/28 04:30:15;;;;;;;3.30;0.98;;;;;;;;;;5009753;28;20560;-74
2022/07/28 04:32:41;;;;;;;2.03;0.90;;;;;;;;;;5001458;28;20026;-74
2022/07/28 04:35:08;;;;;;;3.03;1.00;;;;;;;;;;5010030;28;20034;-74
2022/07/28 04:37:33;;;;;;;3.47;0.98;;;;;;;;;;5004335;28;20765;-74
2022/07/28 04:39:59;;;;;;;2.30;1.00;;;;;;;;;;5005534;28;20054;-74
2022/07/28 04:42:24;;;;;;;5.75;1.13;;;;;;;;;;5006253;28;20026;-74
2022/07/28 04:44:50;;;;;;;2.78;1.00;;;;;;;;;;5009067;28;20032;-74
2022/07/28 04:47:16;;;;;;;2.28;0.93;;;;;;;;;;5012355;28;20025;-72
2022/07/28 04:49:41;;;;;;;2.42;1.10;;;;;;;;;;5012167;28;20052;-73
2022/07/28 04:52:07;;;;;;;1.83;0.90;;;;;;;;;;5011050;28;20025;-72
2022/07/28 04:54:33;;;;;;;1.90;1.10;;;;;;;;;;5014297;28;20496;-74
2022/07/28 04:56:59;;;;;;;3.85;1.13;;;;;;;;;;5009407;28;20026;-74
2022/07/28 04:59:24;;;;;;;2.80;1.15;;;;;;;;;;5011801;28;20024;-74
2022/07/28 05:01:50;;;;;;;3.50;1.23;;;;;;;;;;5014228;28;20402;-74
2022/07/28 05:04:15;;;;;;;4.20;1.52;;;;;;;;;;5008661;28;20025;-72
2022/07/28 05:06:41;;;;;;;2.58;1.25;;;;;;;;;;5008708;28;20349;-74
2022/07/28 05:09:06;;;;;;;5.60;1.40;;;;;;;;;;5012284;28;20029;-74
2022/07/28 05:11:31;;;;;;;3.30;1.20;;;;;;;;;;5012366;28;20044;-74
2022/07/28 05:13:57;;;;;;;2.90;1.20;;;;;;;;;;5007616;28;20030;-73
2022/07/28 05:16:22;;;;;;;3.30;1.30;;;;;;;;;;5011714;28;20088;-72
2022/07/28 05:18:47;;;;;;;3.55;1.17;;;;;;;;;;5006627;28;20037;-74
2022/07/28 05:21:13;;;;;;;3.65;1.15;;;;;;;;;;5011155;28;20033;-74
2022/07/28 05:23:38;;;;;;;2.72;1.02;;;;;;;;;;5013036;28;20029;-74
2022/07/28 05:26:05;;;;;;;4.30;1.92;;;;;;;;;;5014243;28;20036;-74
2022/07/28 05:28:31;;;;;;;4.03;1.20;;;;;;;;;;5006981;28;20030;-74
2022/07/28 05:30:57;;;;;;;4.05;1.20;;;;;;;;;;5007903;28;20033;-73
2022/07/28 05:33:22;;;;;;;4.57;1.40;;;;;;;;;;5000473;28;20389;-74
2022/07/28 05:35:56;;;;;;;2.90;1.20;;;;;;;;;;5011994;28;20057;-74
2022/07/28 05:38:21;;;;;;;4.68;1.45;;;;;;;;;;5012482;28;20028;-74
2022/07/28 05:40:47;;;;;;;2.97;1.17;;;;;;;;;;5013989;28;20030;-74
2022/07/28 05:43:13;;;;;;;3.08;1.60;;;;;;;;;;5011346;28;20092;-74
2022/07/28 05:45:38;;;;;;;3.45;1.10;;;;;;;;;;5012539;28;20034;-73
2022/07/28 05:48:04;;;;;;;4.15;1.27;;;;;;;;;;5009233;28;20029;-73
2022/07/28 05:50:30;;;;;;;3.97;1.30;;;;;;;;;;5009610;28;20026;-71
2022/07/28 05:52:55;;;;;;;2.15;1.23;;;;;;;;;;5010667;28;20088;-73
2022/07/28 05:55:21;;;;;;;2.65;1.40;;;;;;;;;;5003876;28;20278;-71
2022/07/28 05:57:46;;;;;;;2.35;1.10;;;;;;;;;;4998229;28;20665;-73
2022/07/28 06:00:18;;;;;;;4.70;1.33;;;;;;;;;;5000584;28;20104;-74
2022/07/28 06:02:46;;;;;;;4.30;1.30;;;;;;;;;;5005886;28;20406;-73
2022/07/28 06:05:12;;;;;;;4.30;1.15;;;;;;;;;;5000895;28;20025;-73
2022/07/28 06:07:38;;;;;;;2.45;1.00;;;;;;;;;;4999381;28;20029;-73
2022/07/28 06:10:04;;;;;;;4.75;1.20;;;;;;;;;;5008526;28;20033;-73
2022/07/28 06:12:29;;;;;;;3.72;1.13;;;;;;;;;;5011830;28;20077;-72
2022/07/28 06:14:55;;;;;;;3.92;1.45;;;;;;;;;;5008343;28;20445;-72
2022/07/28 06:17:20;;;;;;;2.53;1.00;;;;;;;;;;5008697;28;20029;-73
2022/07/28 06:19:46;;;;;;;3.45;0.95;;;;;;;;;;5013413;28;20034;-73
2022/07/28 06:22:11;;;;;;;3.00;0.85;;;;;;;;;;5007281;28;20041;-73
2022/07/28 06:24:37;;;;;;;3.05;1.20;;;;;;;;;;5008612;28;20036;-72
2022/07/28 06:27:02;;;;;;;4.32;1.20;;;;;;;;;;5010102;28;20055;-73
2022/07/28 06:29:29;;;;;;;3.45;1.00;;;;;;;;;;5011821;28;20042;-72
2022/07/28 06:31:54;;;;;;;2.15;0.80;;;;;;;;;;5007598;28;20045;-74
2022/07/28 06:34:20;;;;;;;2.08;0.88;;;;;;;;;;5010357;28;20030;-73
2022/07/28 06:36:45;;;;;;;5.88;1.25;;;;;;;;;;5008866;28;20723;-73
2022/07/28 06:39:11;;;;;;;4.22;1.15;;;;;;;;;;5008504;28;20048;-73
2022/07/28 06:41:40;;;;;;;2.00;0.90;;;;;;;;;;5011365;28;20026;-73
2022/07/28 06:44:07;;;;;;;2.97;0.90;;;;;;;;;;5008215;28;20030;-74
2022/07/28 06:46:32;;;;;;;4.72;1.15;;;;;;;;;;5018595;28;20028;-73
2022/07/28 06:48:58;;;;;;;4.82;1.30;;;;;;;;;;5002548;28;20029;-74
2022/07/28 06:51:23;;;;;;;2.60;0.93;;;;;;;;;;5000385;28;20382;-73
2022/07/28 06:53:49;;;;;;;3.50;1.38;;;;;;;;;;4998924;28;20030;-73
2022/07/28 06:56:15;;;;;;;3.78;1.00;;;;;;;;;;5005599;28;20022;-73
2022/07/28 06:58:40;;;;;;;3.28;0.90;;;;;;;;;;5010827;28;20030;-73
2022/07/28 07:01:06;;;;;;;3.50;1.10;;;;;;;;;;5006171;28;20091;-72
2022/07/28 07:03:32;;;;;;;3.83;1.00;;;;;;;;;;5003885;28;20337;-73
2022/07/28 07:05:58;;;;;;;2.13;0.80;;;;;;;;;;5007144;28;20529;-72
2022/07/28 07:08:23;;;;;;;5.88;0.80;;;;;;;;;;4997928;28;20034;-73
2022/07/28 07:10:49;;;;;;;3.15;0.95;;;;;;;;;;4998141;28;20037;-74
2022/07/28 07:13:14;;;;;;;3.95;1.10;;;;;;;;;;4993938;28;20030;-73
2022/07/28 07:15:40;;;;;;;6.57;0.90;;;;;;;;;;4998074;28;20624;-73
2022/07/28 07:18:05;;;;;;;5.90;1.00;;;;;;;;;;5012135;28;20054;-72
2022/07/28 07:20:31;;;;;;;2.60;0.90;;;;;;;;;;5001364;28;20021;-73
2022/07/28 07:22:56;;;;;;;4.43;0.98;;;;;;;;;;5003313;28;20063;-72
2022/07/28 07:25:22;;;;;;;3.47;1.27;;;;;;;;;;5003305;28;20029;-71
2022/07/28 07:27:47;;;;;;;3.25;0.80;;;;;;;;;;5005435;28;20022;-73
2022/07/28 07:30:14;;;;;;;2.15;0.63;;;;;;;;;;5001959;28;20116;-71
2022/07/28 07:32:39;;;;;;;2.53;0.70;;;;;;;;;;5004191;28;20033;-73
2022/07/28 07:35:07;;;;;;;3.42;0.80;;;;;;;;;;5001250;28;20022;-72
2022/07/28 07:37:32;;;;;;;1.98;0.80;;;;;;;;;;5001877;28;20092;-73
2022/07/28 07:39:59;;;;;;;2.55;0.85;;;;;;;;;;5005966;28;20057;-73
2022/07/28 07:42:25;;;;;;;2.40;0.70;;;;;;;;;;5009360;28;20492;-75
2022/07/28 07:44:50;;;;;;;4.47;0.80;;;;;;;;;;5008763;28;20026;-74
2022/07/28 07:47:17;;;;;;;2.10;0.77;;;;;;;;;;5006789;28;20573;-72
2022/07/28 07:49:42;;;;;;;3.75;1.60;;;;;;;;;;5005414;28;20390;-74
2022/07/28 07:52:07;;;;;;;3.67;0.90;;;;;;;;;;5009119;28;20030;-74
2022/07/28 07:54:33;;;;;;;3.33;0.73;;;;;;;;;;5017525;28;20060;-72
2022/07/28 07:56:58;;;;;;;2.95;0.80;;;;;;;;;;4996520;28;20026;-73
2022/07/28 07:59:23;;;;;;;2.75;0.73;;;;;;;;;;5005607;28;20034;-74
2022/07/28 08:01:53;;;;;;;1.75;0.73;;;;;;;;;;5002273;28;20029;-74
2022/07/28 08:04:20;;;;;;;2.13;0.60;;;;;;;;;;4997447;28;20022;-73
2022/07/28 08:06:46;;;;;;;1.83;0.80;;;;;;;;;;4999616;28;20397;-74
2022/07/28 08:09:11;;;;;;;1.58;0.63;;;;;;;;;;5001965;28;20061;-73
2022/07/28 08:11:37;;;;;;;2.25;0.70;;;;;;;;;;5002952;28;20049;-73
2022/07/28 08:14:02;;;;;;;1.27;0.63;;;;;;;;;;5002424;28;20021;-72
2022/07/28 08:16:27;;;;;;;2.85;0.75;;;;;;;;;;5001873;28;20056;-74
2022/07/28 08:18:57;;;;;;;2.70;0.80;;;;;;;;;;5000438;28;20046;-74
2022/07/28 08:21:22;;;;;;;2.95;0.50;;;;;;;;;;5005638;28;20490;-74
2022/07/28 08:23:48;;;;;;;2.08;0.73;;;;;;;;;;5011057;28;20032;-74
2022/07/28 08:26:13;;;;;;;1.77;0.60;;;;;;;;;;5007657;28;20120;-72
2022/07/28 08:28:38;;;;;;;4.35;0.68;;;;;;;;;;5007620;28;20088;-74
2022/07/28 08:31:04;;;;;;;3.85;0.70;;;;;;;;;;5005231;28;20101;-74
2022/07/28 08:33:29;;;;;;;1.20;0.60;;;;;;;;;;5004563;28;20026;-74
2022/07/28 08:35:55;;;;;;;3.22;0.85;;;;;;;;;;5003600;28;20050;-74
2022/07/28 08:38:20;;;;;;;3.03;0.95;;;;;;;;;;5002563;28;20034;-74
2022/07/28 08:40:48;;;;;;;2.92;0.73;;;;;;;;;;5006126;28;20477;-74
2022/07/28 08:43:24;;;;;;;1.27;0.55;;;;;;;;;;5004916;28;20038;-73
2022/07/28 08:45:51;;;;;;;2.92;0.70;;;;;;;;;;5005518;28;20105;-74
2022/07/28 08:48:19;;;;;;;2.55;0.70;;;;;;;;;;5007749;28;20022;-74
2022/07/28 08:50:46;;;;;;;2.78;0.77;;;;;;;;;;5012168;28;20045;-74
2022/07/28 08:53:14;;;;;;;2.05;0.60;;;;;;;;;;5026376;28;20053;-75
2022/07/28 08:55:40;;;;;;;1.63;0.60;;;;;;;;;;5006518;28;20046;-74
2022/07/28 08:58:06;;;;;;;1.85;0.60;;;;;;;;;;5012191;28;20036;-74
2022/07/28 09:00:32;;;;;;;2.10;0.70;;;;;;;;;;5008742;28;20034;-75
2022/07/28 09:03:00;;;;;;;3.75;0.80;;;;;;;;;;5008157;28;20355;-74
2022/07/28 09:05:26;;;;;;;4.07;0.90;;;;;;;;;;5006140;28;20067;-74
2022/07/28 09:07:53;;;;;;;2.72;0.70;;;;;;;;;;5008411;28;20033;-74
2022/07/28 09:10:19;;;;;;;2.15;0.95;;;;;;;;;;5009966;28;20037;-74
2022/07/28 09:12:45;;;;;;;1.63;0.65;;;;;;;;;;5010953;28;20112;-74
2022/07/28 09:15:12;;;;;;;2.63;0.70;;;;;;;;;;5013047;28;20033;-74
2022/07/28 09:17:39;;;;;;;2.72;0.70;;;;;;;;;;5010728;28;20032;-73
2022/07/28 09:20:05;;;;;;;1.42;0.70;;;;;;;;;;5013774;28;20034;-74
2022/07/28 09:22:35;;;;;;;2.38;0.70;;;;;;;;;;5008452;28;20037;-73
2022/07/28 09:25:02;;;;;;;2.67;0.65;;;;;;;;;;5007740;28;20080;-73
2022/07/28 09:27:41;;;;;;;2.15;0.65;;;;;;;;;;5013522;28;20033;-74
2022/07/28 09:30:07;;;;;;;2.85;0.70;;;;;;;;;;5009175;28;20040;-74
2022/07/28 09:32:33;;;;;;;1.48;0.70;;;;;;;;;;5012536;28;20041;-75
2022/07/28 09:34:58;;;;;;;2.15;0.68;;;;;;;;;;5005586;28;20026;-75
2022/07/28 09:37:26;;;;;;;4.18;0.80;;;;;;;;;;5012493;28;20060;-74
2022/07/28 09:39:53;;;;;;;2.80;0.77;;;;;;;;;;5012392;28;20037;-75
2022/07/28 09:42:20;;;;;;;1.48;0.65;;;;;;;;;;5013028;28;20424;-73
2022/07/28 09:45:05;;;;;;;2.95;0.70;;;;;;;;;;5013480;28;20109;-75
2022/07/28 09:47:31;;;;;;;2.53;0.90;;;;;;;;;;5013887;28;20022;-74
2022/07/28 09:49:57;;;;;;;1.63;0.70;;;;;;;;;;5010092;28;20461;-74
2022/07/28 09:52:32;;;;;;;1.83;0.85;;;;;;;;;;5007959;28;20040;-75
2022/07/28 09:54:59;;;;;;;1.75;0.70;;;;;;;;;;5008273;28;20053;-75
2022/07/28 09:57:28;;;;;;;2.90;0.80;;;;;;;;;;5009016;28;20026;-74
2022/07/28 09:59:54;;;;;;;3.28;0.80;;;;;;;;;;5002562;28;20033;-74
2022/07/28 10:02:24;;;;;;;1.70;0.70;;;;;;;;;;5010884;28;20088;-75
2022/07/28 10:04:51;;;;;;;2.15;0.60;;;;;;;;;;5009965;28;20033;-74
2022/07/28 10:07:17;;;;;;;2.72;0.70;;;;;;;;;;5008158;28;20049;-74
2022/07/28 10:09:43;;;;;;;3.55;0.80;;;;;;;;;;5007978;28;20029;-73
2022/07/28 10:12:36;;;;;;;3.60;0.95;;;;;;;;;;5011053;28;20355;-74
2022/07/28 10:17:57;;;;;;;2.00;0.75;;;;;;;;;;5011604;28;20096;-73
2022/07/28 10:20:23;;;;;;;3.97;0.95;;;;;;;;;;5010272;28;20474;-73
2022/07/28 10:22:51;;;;;;;2.80;1.13;;;;;;;;;;5006463;28;20165;-75
2022/07/28 10:25:20;;;;;;;1.67;0.80;;;;;;;;;;4998494;28;20475;-75
2022/07/28 10:27:47;;;;;;;1.70;0.50;;;;;;;;;;5006130;28;20109;-73
2022/07/28 10:30:13;;;;;;;1.98;0.80;;;;;;;;;;5009335;28;20076;-75
2022/07/28 10:32:42;;;;;;;4.68;0.70;;;;;;;;;;5008909;28;20044;-73
2022/07/28 10:35:13;;;;;;;1.58;0.77;;;;;;;;;;5003189;28;20540;-74
2022/07/28 10:38:03;;;;;;;1.63;0.60;;;;;;;;;;5009751;28;20065;-73
2022/07/28 10:40:32;;;;;;;1.63;0.60;;;;;;;;;;4999586;28;20041;-74
2022/07/28 10:42:58;;;;;;;2.00;0.70;;;;;;;;;;5007683;28;20060;-74
2022/07/28 10:45:25;;;;;;;1.17;0.60;;;;;;;;;;4998958;28;20061;-75
2022/07/28 10:47:51;;;;;;;2.25;0.60;;;;;;;;;;5000043;28;20100;-74
2022/07/28 10:50:17;;;;;;;4.18;0.90;;;;;;;;;;5004455;28;20061;-74
2022/07/28 10:52:45;;;;;;;2.08;0.60;;;;;;;;;;5018219;28;20048;-74
2022/07/28 10:55:32;;;;;;;4.10;1.15;;;;;;;;;;4996088;28;20034;-75
2022/07/28 10:58:13;;;;;;;1.45;0.60;;;;;;;;;;4992057;28;20794;-75
2022/07/28 11:00:47;;;;;;;1.85;0.70;;;;;;;;;;4995806;28;20482;-73
2022/07/28 11:03:42;;;;;;;1.65;0.70;;;;;;;;;;5008955;28;20073;-75
2022/07/28 11:06:33;;;;;;;3.20;0.60;;;;;;;;;;4996344;28;20517;-75
2022/07/28 11:09:20;;;;;;;1.88;0.65;;;;;;;;;;4995217;28;20036;-74
2022/07/28 11:11:50;;;;;;;2.33;0.68;;;;;;;;;;4999452;28;20029;-74
2022/07/28 11:14:22;;;;;;;0.77;0.50;;;;;;;;;;5001567;28;20403;-75
2022/07/28 11:16:59;;;;;;;2.47;0.73;;;;;;;;;;4996003;28;21110;-75
2022/07/28 11:19:28;;;;;;;2.65;0.90;;;;;;;;;;5000630;28;20037;-75
2022/07/28 11:22:23;;;;;;;2.58;0.68;;;;;;;;;;4993867;28;20084;-75
2022/07/28 11:25:01;;;;;;;2.88;0.70;;;;;;;;;;5003635;28;20044;-74
2022/07/28 11:27:52;;;;;;;2.33;0.63;;;;;;;;;;4998684;28;20828;-74
2022/07/28 11:30:18;;;;;;;3.42;0.90;;;;;;;;;;5000666;28;20028;-74
2022/07/28 11:32:50;;;;;;;2.75;0.90;;;;;;;;;;4997539;28;20034;-74
2022/07/28 11:35:27;;;;;;;1.98;0.52;;;;;;;;;;5001359;28;20079;-73
2022/07/28 11:38:01;;;;;;;5.00;0.68;;;;;;;;;;5000046;28;20047;-74
2022/07/28 11:40:44;;;;;;;3.22;0.60;;;;;;;;;;5000552;28;20640;-74
2022/07/28 11:43:30;;;;;;;1.52;0.50;;;;;;;;;;4999519;28;20033;-74
2022/07/28 11:46:05;;;;;;;1.83;0.60;;;;;;;;;;4997597;28;20721;-74
2022/07/28 11:48:31;;;;;;;2.42;0.50;;;;;;;;;;4999891;28;20057;-74
2022/07/28 11:51:02;;;;;;;4.63;0.90;;;;;;;;;;5003387;28;20037;-74
2022/07/28 11:53:41;;;;;;;3.65;0.70;;;;;;;;;;4999273;28;20026;-74
2022/07/28 11:56:11;;;;;;;1.15;0.50;;;;;;;;;;4995407;28;20026;-75
2022/07/28 11:58:38;;;;;;;1.55;0.50;;;;;;;;;;4998544;28;20356;-74
2022/07/28 12:01:14;;;;;;;2.22;0.50;;;;;;;;;;5001315;28;20034;-75
2022/07/28 12:03:41;;;;;;;0.85;0.60;;;;;;;;;;4997528;28;20663;-75
2022/07/28 12:06:10;;;;;;;1.42;0.70;;;;;;;;;;4996219;28;20054;-74
2022/07/28 12:08:56;;;;;;;1.25;0.50;;;;;;;;;;5015334;28;20080;-73
2022/07/28 12:11:25;;;;;;;3.28;0.80;;;;;;;;;;4997591;28;20029;-74
2022/07/28 12:13:59;;;;;;;3.28;1.25;;;;;;;;;;4994695;28;20038;-74
2022/07/28 12:16:29;;;;;;;1.88;0.70;;;;;;;;;;4998071;28;20393;-74
2022/07/28 12:18:55;;;;;;;2.40;0.57;;;;;;;;;;4996124;28;20034;-73
2022/07/28 12:21:40;;;;;;;1.85;0.60;;;;;;;;;;5000101;28;20038;-74
2022/07/28 12:24:08;;;;;;;2.03;0.60;;;;;;;;;;4997596;28;20132;-74
2022/07/28 12:26:35;;;;;;;1.30;0.63;;;;;;;;;;4997500;28;20045;-73
2022/07/28 12:29:02;;;;;;;1.20;0.60;;;;;;;;;;4996047;28;20041;-74
2022/07/28 12:31:36;;;;;;;1.58;0.55;;;;;;;;;;4997418;28;20080;-74
2022/07/28 12:34:05;;;;;;;4.40;0.68;;;;;;;;;;4991162;28;20414;-74
2022/07/28 12:36:32;;;;;;;1.63;0.55;;;;;;;;;;4993834;28;20041;-74
2022/07/28 12:38:59;;;;;;;1.35;0.52;;;;;;;;;;4995958;28;20069;-74
2022/07/28 12:41:32;;;;;;;1.48;0.65;;;;;;;;;;4997486;28;20022;-74
2022/07/28 12:43:57;;;;;;;1.23;0.50;;;;;;;;;;4987003;28;20028;-74
2022/07/28 12:46:25;;;;;;;1.40;0.60;;;;;;;;;;4996403;28;20026;-75
2022/07/28 12:48:51;;;;;;;2.67;0.70;;;;;;;;;;5001020;28;20034;-74
2022/07/28 12:51:40;;;;;;;2.53;0.55;;;;;;;;;;4993812;28;20025;-73
2022/07/28 12:54:10;;;;;;;2.15;0.70;;;;;;;;;;4998268;28;20030;-74
2022/07/28 12:56:51;;;;;;;3.40;0.90;;;;;;;;;;5002734;28;20172;-74
2022/07/28 12:59:18;;;;;;;1.27;0.60;;;;;;;;;;4999506;28;20099;-74
2022/07/28 13:01:50;;;;;;;1.55;0.70;;;;;;;;;;5001778;28;20029;-75
2022/07/28 13:04:35;;;;;;;1.80;0.65;;;;;;;;;;4996378;28;20810;-74
2022/07/28 13:07:01;;;;;;;1.52;0.60;;;;;;;;;;5001945;28;20030;-74
2022/07/28 13:09:26;;;;;;;1.98;0.60;;;;;;;;;;5001170;28;20405;-75
2022/07/28 13:11:52;;;;;;;2.38;0.63;;;;;;;;;;5002497;28;20087;-73
2022/07/28 13:14:37;;;;;;;1.33;0.60;;;;;;;;;;5005967;28;20079;-75
2022/07/28 13:17:03;;;;;;;1.48;0.70;;;;;;;;;;5001363;28;20026;-74
2022/07/28 13:19:28;;;;;;;1.73;0.60;;;;;;;;;;5003911;28;20359;-75
2022/07/28 13:21:56;;;;;;;0.93;0.52;;;;;;;;;;5004932;28;20112;-74
2022/07/28 13:24:22;;;;;;;2.47;0.80;;;;;;;;;;5004452;28;20029;-74
2022/07/28 13:26:47;;;;;;;2.95;0.80;;;;;;;;;;5005900;28;20145;-74
2022/07/28 13:29:13;;;;;;;2.35;0.80;;;;;;;;;;5001382;28;20145;-73
2022/07/28 13:31:39;;;;;;;2.83;0.70;;;;;;;;;;5001458;28;20033;-74
2022/07/28 13:34:06;;;;;;;2.08;0.70;;;;;;;;;;5004544;28;20034;-73
2022/07/28 13:36:33;;;;;;;1.85;0.70;;;;;;;;;;4996209;28;20080;-74
2022/07/28 13:38:58;;;;;;;3.13;0.73;;;;;;;;;;5005415;28;20494;-75
2022/07/28 13:41:24;;;;;;;1.75;0.73;;;;;;;;;;5003165;28;20034;-74
2022/07/28 13:43:49;;;;;;;1.65;0.70;;;;;;;;;;5003973;28;20033;-74
2022/07/28 13:46:15;;;;;;;2.20;0.73;;;;;;;;;;5002892;28;20040;-74
2022/07/28 13:48:41;;;;;;;2.42;0.68;;;;;;;;;;5005800;28;20092;-73
2022/07/28 13:51:09;;;;;;;2.28;0.80;;;;;;;;;;5004297;28;20030;-74
2022/07/28 13:53:36;;;;;;;2.97;1.00;;;;;;;;;;5002863;28;20113;-74
2022/07/28 13:56:01;;;;;;;2.10;0.80;;;;;;;;;;5003411;28;20113;-73
2022/07/28 13:58:26;;;;;;;2.65;0.80;;;;;;;;;;5003098;28;20053;-74
2022/07/28 14:00:52;;;;;;;1.75;0.60;;;;;;;;;;5002486;28;20521;-74
2022/07/28 14:03:17;;;;;;;3.28;0.65;;;;;;;;;;5005425;28;20032;-73
2022/07/28 14:05:43;;;;;;;4.57;0.80;;;;;;;;;;5001914;28;20300;-74
2022/07/28 14:08:08;;;;;;;1.55;0.57;;;;;;;;;;5003654;28;20029;-74
2022/07/28 14:10:36;;;;;;;2.20;0.60;;;;;;;;;;5004180;28;20084;-74
2022/07/28 14:13:02;;;;;;;2.25;0.70;;;;;;;;;;4999577;28;20076;-74
2022/07/28 14:15:27;;;;;;;4.07;0.85;;;;;;;;;;4997750;28;20029;-74
2022/07/28 14:17:52;;;;;;;3.95;0.98;;;;;;;;;;5000309;28;20431;-74
2022/07/28 14:20:18;;;;;;;3.03;1.00;;;;;;;;;;5001422;28;20057;-73
2022/07/28 14:22:44;;;;;;;1.92;0.80;;;;;;;;;;5001300;28;20551;-74
2022/07/28 14:25:10;;;;;;;1.75;0.70;;;;;;;;;;4998975;28;20441;-74
2022/07/28 14:27:36;;;;;;;4.25;1.00;;;;;;;;;;5001652;28;20026;-74
2022/07/28 14:30:03;;;;;;;3.30;0.70;;;;;;;;;;5002309;28;20413;-74
2022/07/28 14:32:28;;;;;;;1.92;0.70;;;;;;;;;;5001103;28;20026;-74
2022/07/28 14:34:54;;;;;;;1.73;0.65;;;;;;;;;;4998849;28;20450;-74
2022/07/28 14:37:19;;;;;;;2.10;0.70;;;;;;;;;;4997448;28;20065;-74
2022/07/28 14:39:44;;;;;;;2.47;0.68;;;;;;;;;;4998926;28;20425;-73
2022/07/28 14:42:10;;;;;;;2.83;0.60;;;;;;;;;;5000014;28;20034;-73
2022/07/28 14:44:36;;;;;;;4.30;0.63;;;;;;;;;;4996032;28;20470;-73
2022/07/28 14:47:01;;;;;;;1.52;0.57;;;;;;;;;;4997214;28;20455;-73
2022/07/28 14:49:27;;;;;;;4.18;0.80;;;;;;;;;;5000801;28;20128;-74
2022/07/28 14:51:54;;;;;;;2.17;0.73;;;;;;;;;;5000822;28;20033;-73
2022/07/28 14:54:20;;;;;;;3.72;0.80;;;;;;;;;;4996586;28;20026;-74
2022/07/28 14:56:45;;;;;;;2.45;0.77;;;;;;;;;;4998435;28;20036;-74